Time;durP1;ratioP1;P1;durP2;ratioP2;P2;SDS_P1;SDS_P2;PMS_P1;PMS_P2;Temp;Humidity;BMP_temperature;BMP_pressure;BME280_temperature;BME280_humidity;BME280_pressure;Samples;Min_cycle;Max_cycle;Signal;HPM_P1;HPM_P2
2022/11/07 00:00:27;;;;;;;10.80;5.57;;;;;;;8.69;100.00;100750.25;4898925;29;20036;-77
2022/11/07 00:02:52;;;;;;;12.85;4.95;;;;;;;8.68;100.00;100764.97;4896260;29;20041;-77
2022/11/07 00:05:18;;;;;;;13.48;5.55;;;;;;;8.62;100.00;100759.03;4898759;29;20577;-77
2022/11/07 00:07:43;;;;;;;8.63;5.05;;;;;;;8.49;100.00;100747.13;4897392;29;20034;-77
2022/11/07 00:10:08;;;;;;;16.63;5.32;;;;;;;8.49;100.00;100760.97;4909361;29;20112;-77
2022/11/07 00:12:35;;;;;;;12.30;5.00;;;;;;;8.39;100.00;100751.63;4899822;29;20036;-77
2022/11/07 00:15:02;;;;;;;11.77;5.15;;;;;;;8.38;100.00;100774.13;4903454;29;20032;-77
2022/11/07 00:17:27;;;;;;;9.95;4.88;;;;;;;8.33;100.00;100762.06;4907998;29;20035;-77
2022/11/07 00:19:52;;;;;;;9.45;4.85;;;;;;;8.27;100.00;100767.34;4905457;29;20032;-77
2022/11/07 00:22:17;;;;;;;7.53;4.68;;;;;;;8.20;100.00;100770.03;4909854;29;20415;-77
2022/11/07 00:24:43;;;;;;;14.10;5.70;;;;;;;8.20;100.00;100772.63;4906953;29;20437;-77
2022/11/07 00:27:08;;;;;;;12.13;5.20;;;;;;;8.17;100.00;100772.69;4900331;29;20385;-77
2022/11/07 00:29:33;;;;;;;13.10;5.53;;;;;;;8.18;100.00;100776.16;4906958;29;20040;-77
2022/11/07 00:31:58;;;;;;;11.13;6.07;;;;;;;8.21;100.00;100763.97;4906480;29;20028;-77
2022/11/07 00:34:24;;;;;;;15.02;5.40;;;;;;;8.28;100.00;100772.53;4901594;29;20112;-77
2022/11/07 00:36:49;;;;;;;12.45;4.97;;;;;;;8.28;100.00;100772.53;4905784;29;20067;-77
2022/11/07 00:39:14;;;;;;;10.35;5.13;;;;;;;8.25;100.00;100779.53;4901821;29;20469;-77
2022/11/07 00:41:40;;;;;;;10.32;5.50;;;;;;;8.19;100.00;100778.72;4909639;29;20039;-77
2022/11/07 00:44:05;;;;;;;11.43;5.30;;;;;;;8.12;100.00;100771.91;4898218;29;20040;-77
2022/11/07 00:46:30;;;;;;;11.77;5.35;;;;;;;8.18;100.00;100779.59;4900169;29;20045;-77
2022/11/07 00:48:56;;;;;;;10.85;4.97;;;;;;;8.14;100.00;100777.94;4907254;29;20376;-77
2022/11/07 00:51:23;;;;;;;15.20;5.10;;;;;;;8.11;100.00;100783.19;4911148;29;20029;-77
2022/11/07 00:53:49;;;;;;;10.10;5.30;;;;;;;8.11;100.00;100788.38;4897219;29;20036;-77
2022/11/07 00:56:17;;;;;;;15.80;5.57;;;;;;;8.11;100.00;100796.16;4897252;29;20039;-77
2022/11/07 00:58:43;;;;;;;11.60;5.07;;;;;;;8.11;100.00;100795.28;4906547;29;20132;-77
2022/11/07 01:01:13;;;;;;;14.10;5.45;;;;;;;8.15;100.00;100790.03;4918097;29;20077;-77
2022/11/07 01:06:25;;;;;;;13.10;5.28;;;;;;;8.24;100.00;100789.06;4894623;29;20072;-77
2022/11/07 01:08:53;;;;;;;10.27;4.72;;;;;;;8.20;100.00;100783.00;4903387;29;20024;-77
2022/11/07 01:11:18;;;;;;;14.77;6.20;;;;;;;8.25;100.00;100789.91;4904236;29;20080;-77
2022/11/07 01:13:44;;;;;;;11.10;4.82;;;;;;;8.24;100.00;100793.38;4898699;29;20028;-78
2022/11/07 01:16:09;;;;;;;11.90;5.75;;;;;;;8.18;100.00;100796.94;4901308;29;20039;-76
2022/11/07 01:18:35;;;;;;;11.70;5.10;;;;;;;8.19;100.00;100799.50;4905516;29;20024;-77
2022/11/07 01:21:07;;;;;;;14.57;5.50;;;;;;;8.24;100.00;100808.94;4912670;29;20427;-77
2022/11/07 01:23:33;;;;;;;19.02;5.72;;;;;;;8.27;100.00;100819.28;4906401;29;20055;-77
2022/11/07 01:26:04;;;;;;;13.52;5.30;;;;;;;8.32;100.00;100817.50;4906655;29;20473;-77
2022/11/07 01:28:30;;;;;;;9.93;4.93;;;;;;;8.38;100.00;100818.31;4900439;29;20108;-77
2022/11/07 01:30:55;;;;;;;15.20;5.15;;;;;;;8.39;100.00;100819.16;4900089;29;20135;-76
2022/11/07 01:33:20;;;;;;;15.82;5.28;;;;;;;8.41;100.00;100822.59;4900517;29;20131;-77
2022/11/07 01:35:45;;;;;;;11.40;5.20;;;;;;;8.44;100.00;100818.22;4897052;29;20029;-77
2022/11/07 01:38:11;;;;;;;14.82;5.28;;;;;;;8.49;100.00;100831.13;4905192;29;20066;-77
2022/11/07 01:43:42;;;;;;;10.50;5.38;;;;;;;8.56;100.00;100818.91;4909938;29;20039;-77
2022/11/07 01:46:07;;;;;;;15.13;5.55;;;;;;;8.54;100.00;100807.69;4898302;29;20037;-77
2022/11/07 01:48:33;;;;;;;13.95;5.10;;;;;;;8.52;100.00;100812.88;4905650;29;20024;-77
2022/11/07 01:50:58;;;;;;;14.80;5.10;;;;;;;8.50;100.00;100827.66;4906090;29;20172;-77
2022/11/07 01:53:23;;;;;;;16.20;5.15;;;;;;;8.50;100.00;100816.38;4911708;29;20551;-78
2022/11/07 01:55:49;;;;;;;13.15;5.68;;;;;;;8.52;100.00;100823.28;4909078;29;20063;-77
2022/11/07 01:58:14;;;;;;;15.95;4.80;;;;;;;8.50;100.00;100817.28;4899529;29;20492;-77
2022/11/07 02:00:39;;;;;;;14.65;5.00;;;;;;;8.56;100.00;100826.69;4914784;29;20046;-77
2022/11/07 02:03:09;;;;;;;13.75;5.18;;;;;;;8.56;100.00;100826.69;4899251;29;20032;-77
2022/11/07 02:05:42;;;;;;;10.90;5.07;;;;;;;8.54;100.00;100821.53;4905516;29;20043;-77
2022/11/07 02:08:10;;;;;;;11.93;5.30;;;;;;;8.57;100.00;100828.44;4909113;29;20160;-77
2022/11/07 02:10:38;;;;;;;18.52;5.28;;;;;;;8.57;100.00;100828.44;4912433;29;20036;-77
2022/11/07 02:13:04;;;;;;;14.27;4.65;;;;;;;8.55;100.00;100827.59;4897288;29;20036;-77
2022/11/07 02:15:31;;;;;;;16.95;5.82;;;;;;;8.51;100.00;100829.38;4903381;29;20544;-77
2022/11/07 02:17:57;;;;;;;13.90;5.03;;;;;;;8.45;100.00;100832.06;4900291;29;20036;-77
2022/11/07 02:20:22;;;;;;;13.68;4.53;;;;;;;8.40;100.00;100818.25;4898039;29;20025;-77
2022/11/07 02:23:12;;;;;;;15.38;5.05;;;;;;;8.30;100.00;100814.06;4903732;29;20648;-77
2022/11/07 02:25:37;;;;;;;11.50;5.50;;;;;;;8.37;100.00;100818.28;4896184;29;20044;-77
2022/11/07 02:28:07;;;;;;;15.02;5.50;;;;;;;8.37;100.00;100821.75;4900597;29;20020;-77
2022/11/07 02:30:33;;;;;;;17.15;5.95;;;;;;;8.37;100.00;100823.47;4894360;29;20100;-77
2022/11/07 02:32:59;;;;;;;20.17;5.25;;;;;;;8.40;100.00;100820.84;4908653;29;20043;-77
2022/11/07 02:35:33;;;;;;;18.95;6.25;;;;;;;8.42;100.00;100827.75;4906897;29;20032;-77
2022/11/07 02:37:59;;;;;;;16.27;6.35;;;;;;;8.48;100.00;100831.16;4903131;29;20064;-77
2022/11/07 02:40:27;;;;;;;17.30;5.55;;;;;;;8.51;100.00;100823.31;4914235;29;20364;-77
2022/11/07 02:42:53;;;;;;;14.25;5.70;;;;;;;8.53;100.00;100830.19;4895276;29;20113;-77
2022/11/07 02:45:24;;;;;;;15.98;6.18;;;;;;;8.56;100.00;100829.28;4897244;29;20480;-77
2022/11/07 02:47:49;;;;;;;16.08;5.30;;;;;;;8.59;100.00;100824.03;4909376;29;20375;-77
2022/11/07 02:50:15;;;;;;;20.33;5.65;;;;;;;8.54;100.00;100826.72;4897642;29;20119;-77
2022/11/07 02:52:41;;;;;;;18.30;5.60;;;;;;;8.54;100.00;100831.94;4895104;29;20044;-77
2022/11/07 02:55:07;;;;;;;18.05;5.25;;;;;;;8.48;100.00;100831.16;4907770;29;20115;-77
2022/11/07 02:57:33;;;;;;;15.52;5.10;;;;;;;8.42;100.00;100824.31;4902139;29;20063;-77
2022/11/07 02:59:58;;;;;;;15.60;5.07;;;;;;;8.43;100.00;100826.00;4900595;29;20028;-77
2022/11/07 03:02:24;;;;;;;15.27;6.00;;;;;;;8.42;100.00;100816.50;4905519;29;20083;-77
2022/11/07 03:04:50;;;;;;;18.33;5.82;;;;;;;8.45;100.00;100824.25;4910680;29;20032;-77
2022/11/07 03:07:15;;;;;;;15.82;5.75;;;;;;;8.46;100.00;100823.38;4901393;29;20044;-77
2022/11/07 03:09:41;;;;;;;17.30;5.45;;;;;;;8.40;100.00;100815.66;4908970;29;20041;-77
2022/11/07 03:12:06;;;;;;;15.45;5.72;;;;;;;8.46;100.00;100825.97;4908002;29;20024;-77
2022/11/07 03:14:32;;;;;;;19.13;5.95;;;;;;;8.48;100.00;100823.38;4911473;29;20044;-77
2022/11/07 03:16:57;;;;;;;13.80;5.40;;;;;;;8.50;100.00;100826.78;4907158;29;20043;-77
2022/11/07 03:19:23;;;;;;;20.17;4.90;;;;;;;8.53;100.00;100832.78;4908083;29;20061;-77
2022/11/07 03:21:49;;;;;;;14.23;5.25;;;;;;;8.56;100.00;100827.53;4901196;29;20045;-77
2022/11/07 03:24:15;;;;;;;15.27;5.50;;;;;;;8.55;100.00;100824.97;4901690;29;20146;-77
2022/11/07 03:26:40;;;;;;;17.35;5.75;;;;;;;8.58;100.00;100832.72;4908652;29;20065;-77
2022/11/07 03:29:05;;;;;;;18.42;5.40;;;;;;;8.52;100.00;100814.63;4905545;29;20539;-77
2022/11/07 03:31:31;;;;;;;17.38;5.30;;;;;;;8.59;100.00;100819.69;4905830;29;20041;-77
2022/11/07 03:33:56;;;;;;;24.58;5.63;;;;;;;8.66;100.00;100816.16;4911205;29;20031;-77
2022/11/07 03:36:21;;;;;;;18.00;5.25;;;;;;;8.75;100.00;100820.31;4912743;29;20033;-77
2022/11/07 03:38:47;;;;;;;17.63;5.18;;;;;;;8.76;100.00;100818.56;4899827;29;20036;-77
2022/11/07 03:41:16;;;;;;;17.73;5.35;;;;;;;8.80;100.00;100825.47;4912750;29;20036;-77
2022/11/07 03:43:42;;;;;;;12.45;4.35;;;;;;;8.86;100.00;100835.72;4916192;29;20079;-77
2022/11/07 03:46:07;;;;;;;16.88;4.68;;;;;;;8.87;100.00;100833.13;4912732;29;20067;-77
2022/11/07 03:48:32;;;;;;;21.45;5.03;;;;;;;8.87;100.00;100827.06;4919339;29;20071;-77
2022/11/07 03:50:58;;;;;;;16.70;4.80;;;;;;;8.87;100.00;100830.53;4918297;29;20032;-77
2022/11/07 03:53:23;;;;;;;18.13;4.18;;;;;;;8.87;100.00;100827.94;4904179;29;20016;-76
2022/11/07 03:55:48;;;;;;;16.25;4.40;;;;;;;8.89;100.00;100823.56;4913755;29;20123;-77
2022/11/07 03:58:14;;;;;;;18.80;5.10;;;;;;;8.94;100.00;100830.44;4902145;29;20469;-77
2022/11/07 04:00:39;;;;;;;23.00;5.05;;;;;;;8.90;100.00;100816.63;4900712;29;20020;-77
2022/11/07 04:03:04;;;;;;;15.48;4.35;;;;;;;8.89;100.00;100823.56;4900965;29;20021;-77
2022/11/07 04:05:29;;;;;;;19.63;5.15;;;;;;;8.97;100.00;100805.22;4918867;29;20083;-77
2022/11/07 04:07:55;;;;;;;13.82;3.88;;;;;;;9.00;100.00;100817.31;4905301;29;20043;-77
2022/11/07 04:10:20;;;;;;;15.98;4.80;;;;;;;9.00;100.00;100818.19;4908617;29;20026;-77
2022/11/07 04:18:13;;;;;;;16.15;4.32;;;;;;;8.98;100.00;100819.09;4902580;29;20088;-77
2022/11/07 04:20:38;;;;;;;23.88;3.85;;;;;;;8.94;100.00;100820.88;4912631;29;20024;-77
2022/11/07 04:23:04;;;;;;;12.30;4.82;;;;;;;8.89;100.00;100833.09;4904027;29;20037;-77
2022/11/07 04:28:15;;;;;;;20.20;4.00;;;;;;;8.80;100.00;100821.13;4901958;29;20111;-77
2022/11/07 04:30:40;;;;;;;16.60;4.22;;;;;;;8.78;100.00;100828.06;4911478;29;20099;-77
2022/11/07 04:33:05;;;;;;;24.50;5.10;;;;;;;8.74;100.00;100835.97;4897242;29;20442;-77
2022/11/07 04:35:32;;;;;;;14.75;4.15;;;;;;;8.67;100.00;100830.00;4899303;29;20047;-77
2022/11/07 04:37:58;;;;;;;17.17;3.90;;;;;;;8.64;100.00;100833.50;4901794;29;20107;-77
2022/11/07 04:40:24;;;;;;;19.48;4.25;;;;;;;8.67;100.00;100832.59;4908495;29;20035;-77
2022/11/07 04:42:49;;;;;;;17.27;4.90;;;;;;;8.68;100.00;100839.50;4912619;29;20490;-77
2022/11/07 04:45:15;;;;;;;21.38;4.40;;;;;;;8.68;100.00;100837.75;4918558;29;20391;-77
2022/11/07 04:47:41;;;;;;;16.33;5.00;;;;;;;8.71;100.00;100836.00;4911769;29;20032;-77
2022/11/07 04:50:09;;;;;;;22.73;4.90;;;;;;;8.71;100.00;100833.41;4904685;29;20107;-77
2022/11/07 04:52:35;;;;;;;16.85;3.85;;;;;;;8.74;100.00;100846.34;4904080;29;20104;-77
2022/11/07 04:55:00;;;;;;;17.05;4.25;;;;;;;8.80;100.00;100839.31;4905074;29;20032;-77
2022/11/07 04:57:26;;;;;;;16.70;4.25;;;;;;;8.83;100.00;100838.41;4900645;29;20115;-77
2022/11/07 04:59:51;;;;;;;15.77;4.22;;;;;;;8.92;100.00;100840.84;4909002;29;20385;-77
2022/11/07 05:02:16;;;;;;;20.60;4.65;;;;;;;8.96;100.00;100834.72;4901015;29;20103;-77
2022/11/07 05:04:41;;;;;;;17.02;3.60;;;;;;;8.96;100.00;100826.94;4909076;29;20047;-76
2022/11/07 05:07:07;;;;;;;15.65;4.07;;;;;;;8.94;100.00;100833.88;4897703;29;20099;-77
2022/11/07 05:09:33;;;;;;;17.10;4.03;;;;;;;8.94;100.00;100839.06;4909086;29;20036;-77
2022/11/07 05:11:59;;;;;;;15.70;5.43;;;;;;;8.89;100.00;100830.47;4908979;29;20028;-77
2022/11/07 05:14:25;;;;;;;13.90;4.45;;;;;;;8.90;100.00;100840.88;4912229;29;20055;-77
2022/11/07 05:16:53;;;;;;;21.83;4.13;;;;;;;8.93;100.00;100845.19;4908314;29;20484;-77
2022/11/07 05:19:19;;;;;;;15.95;4.72;;;;;;;8.96;100.00;100855.53;4905128;29;20038;-77
2022/11/07 05:21:45;;;;;;;11.50;3.78;;;;;;;8.91;100.00;100842.59;4904359;29;20052;-77
2022/11/07 05:24:11;;;;;;;12.45;3.50;;;;;;;8.96;100.00;100846.84;4897791;29;20037;-77
2022/11/07 05:26:37;;;;;;;18.70;4.28;;;;;;;8.97;100.00;100841.63;4907370;29;20025;-77
2022/11/07 05:29:03;;;;;;;19.95;4.45;;;;;;;8.94;100.00;100839.06;4901457;29;20024;-77
2022/11/07 05:31:29;;;;;;;15.77;4.05;;;;;;;9.00;100.00;100849.38;4908970;29;20080;-78
2022/11/07 05:33:54;;;;;;;14.65;4.20;;;;;;;8.98;100.00;100845.09;4897398;29;20037;-77
2022/11/07 05:36:21;;;;;;;11.65;4.03;;;;;;;9.08;100.00;100847.50;4899910;29;20032;-77
2022/11/07 05:38:50;;;;;;;17.35;3.75;;;;;;;9.11;100.00;100854.38;4898069;29;20021;-77
2022/11/07 05:41:17;;;;;;;16.73;4.20;;;;;;;9.14;100.00;100850.00;4897040;29;20092;-77
2022/11/07 05:43:43;;;;;;;12.43;3.83;;;;;;;9.13;100.00;100850.03;4897022;29;20116;-77
2022/11/07 05:46:09;;;;;;;19.02;3.58;;;;;;;9.12;100.00;100848.28;4896070;29;20116;-77
2022/11/07 05:48:35;;;;;;;19.15;4.03;;;;;;;9.04;100.00;100851.03;4893916;29;20028;-77
2022/11/07 05:51:00;;;;;;;21.13;4.00;;;;;;;9.06;100.00;100844.06;4893674;29;20032;-77
2022/11/07 05:53:26;;;;;;;16.27;3.63;;;;;;;9.05;100.00;100850.13;4897190;29;20033;-77
2022/11/07 05:55:52;;;;;;;18.95;4.00;;;;;;;9.04;100.00;100853.63;4897873;29;20064;-77
2022/11/07 05:58:19;;;;;;;13.70;3.85;;;;;;;9.02;100.00;100858.00;4898029;29;20060;-77
2022/11/07 06:00:44;;;;;;;12.93;3.78;;;;;;;9.01;100.00;100848.50;4894501;29;20029;-77
2022/11/07 06:03:10;;;;;;;14.35;4.10;;;;;;;9.10;100.00;100847.47;4897221;29;20047;-76
2022/11/07 06:05:40;;;;;;;15.98;3.90;;;;;;;9.17;100.00;100850.84;4894656;29;20040;-77
2022/11/07 06:08:08;;;;;;;16.85;3.78;;;;;;;9.21;100.00;100849.88;4886885;29;20465;-77
2022/11/07 06:10:35;;;;;;;17.02;4.18;;;;;;;9.20;100.00;100838.63;4897464;29;20457;-77
2022/11/07 06:13:03;;;;;;;16.58;3.65;;;;;;;9.29;100.00;100858.44;4897749;29;20039;-77
2022/11/07 06:15:30;;;;;;;14.18;3.85;;;;;;;9.32;100.00;100855.78;4895454;29;20032;-77
2022/11/07 06:17:59;;;;;;;15.30;4.43;;;;;;;9.19;100.00;100838.63;4896097;29;20060;-77
2022/11/07 06:20:24;;;;;;;19.45;3.88;;;;;;;9.31;100.00;100859.25;4896101;29;20107;-77
2022/11/07 06:22:50;;;;;;;19.70;5.07;;;;;;;9.32;100.00;100855.78;4901624;29;20454;-77
2022/11/07 06:25:15;;;;;;;16.88;4.13;;;;;;;9.34;100.00;100848.78;4906300;29;20032;-77
2022/11/07 06:27:40;;;;;;;18.23;4.22;;;;;;;9.32;100.00;100859.22;4900606;29;20043;-77
2022/11/07 06:30:06;;;;;;;13.75;4.00;;;;;;;9.38;100.00;100860.84;4897339;29;20112;-77
2022/11/07 06:32:32;;;;;;;16.45;4.18;;;;;;;9.36;100.00;100852.22;4911637;29;20028;-77
2022/11/07 06:34:57;;;;;;;14.45;3.90;;;;;;;9.43;100.00;100863.38;4914986;29;20079;-77
2022/11/07 06:37:25;;;;;;;18.25;4.10;;;;;;;9.47;100.00;100868.47;4909735;29;20112;-77
2022/11/07 06:39:50;;;;;;;20.65;4.03;;;;;;;9.50;100.00;100865.81;4903784;29;20016;-77
2022/11/07 06:42:15;;;;;;;20.60;4.07;;;;;;;9.54;100.00;100861.41;4902069;29;20370;-77
2022/11/07 06:44:41;;;;;;;17.60;3.90;;;;;;;9.57;100.00;100870.03;4902178;29;20032;-77
2022/11/07 06:47:06;;;;;;;13.25;3.55;;;;;;;9.54;100.00;100861.41;4912675;29;20020;-77
2022/11/07 06:49:31;;;;;;;14.85;4.43;;;;;;;9.57;100.00;100875.22;4900957;29;20264;-77
2022/11/07 06:51:57;;;;;;;14.98;3.63;;;;;;;9.56;100.00;100868.31;4897440;29;20041;-78
2022/11/07 06:54:22;;;;;;;17.77;4.20;;;;;;;9.56;100.00;100878.72;4912175;29;20028;-77
2022/11/07 06:56:47;;;;;;;16.83;4.00;;;;;;;9.50;100.00;100876.25;4910169;29;20029;-76
2022/11/07 06:59:12;;;;;;;17.38;4.40;;;;;;;9.59;100.00;100894.28;4899776;29;20040;-81
2022/11/07 07:01:38;;;;;;;17.92;3.70;;;;;;;9.61;100.00;100884.72;4899903;29;20044;-76
2022/11/07 07:04:04;;;;;;;13.98;3.60;;;;;;;9.68;100.00;100887.19;4898247;29;20036;-76
2022/11/07 07:06:29;;;;;;;16.60;4.03;;;;;;;9.74;100.00;100889.66;4899308;29;20382;-75
2022/11/07 07:08:54;;;;;;;22.00;4.53;;;;;;;9.77;100.00;100893.06;4899232;29;20045;-77
2022/11/07 07:11:20;;;;;;;17.75;3.60;;;;;;;9.68;100.00;100882.84;4900044;29;20032;-77
2022/11/07 07:13:45;;;;;;;14.73;4.13;;;;;;;9.79;100.00;100906.94;4901145;29;20357;-75
2022/11/07 07:16:10;;;;;;;15.77;4.57;;;;;;;9.74;100.00;100895.72;4901081;29;20095;-78
2022/11/07 07:18:36;;;;;;;14.38;4.75;;;;;;;9.76;100.00;100901.78;4898752;29;20472;-74
2022/11/07 07:21:07;;;;;;;14.00;3.17;;;;;;;9.83;100.00;100908.56;4902434;29;20024;-75
2022/11/07 07:23:33;;;;;;;13.25;5.03;;;;;;;9.84;100.00;100906.81;4919551;29;20059;-77
2022/11/07 07:26:00;;;;;;;22.13;3.67;;;;;;;9.90;100.00;100917.13;4907908;29;20031;-76
2022/11/07 07:28:25;;;;;;;16.45;4.35;;;;;;;9.94;100.00;100921.41;4900415;29;20066;-75
2022/11/07 07:30:51;;;;;;;18.85;4.32;;;;;;;10.02;100.00;100922.09;4913438;29;20451;-81
2022/11/07 07:33:16;;;;;;;15.27;3.67;;;;;;;10.06;100.00;100918.53;4919536;29;20035;-77
2022/11/07 07:35:41;;;;;;;16.60;3.88;;;;;;;10.08;100.00;100914.16;4914008;29;20035;-75
2022/11/07 07:38:06;;;;;;;14.35;3.92;;;;;;;10.14;100.00;100925.38;4903320;29;20056;-76
2022/11/07 07:40:32;;;;;;;11.93;3.35;;;;;;;10.18;100.00;100925.25;4914216;29;20032;-76
2022/11/07 07:42:57;;;;;;;14.98;3.33;;;;;;;10.19;100.00;100923.50;4916651;29;20036;-76
2022/11/07 07:45:22;;;;;;;10.05;3.38;;;;;;;10.26;100.00;100925.13;4905578;29;20432;-76
2022/11/07 07:47:48;;;;;;;12.05;4.40;;;;;;;10.30;100.00;100925.06;4907491;29;20477;-75
2022/11/07 07:50:13;;;;;;;15.98;3.55;;;;;;;10.36;100.00;100931.84;4905624;29;20033;-76
2022/11/07 07:52:39;;;;;;;11.65;3.00;;;;;;;10.36;100.00;100937.06;4896499;29;20024;-76
2022/11/07 07:55:07;;;;;;;18.83;3.75;;;;;;;10.33;100.00;100937.13;4896194;29;20032;-77
2022/11/07 07:57:43;;;;;;;14.48;2.88;;;;;;;10.41;100.00;100943.06;4899612;29;20029;-76
2022/11/07 08:00:10;;;;;;;22.88;3.20;;;;;;;10.49;100.00;100946.34;4898740;29;20076;-76
2022/11/07 08:02:35;;;;;;;12.18;3.50;;;;;;;10.64;100.00;100941.72;4909785;29;20055;-76
2022/11/07 08:05:01;;;;;;;13.75;3.10;;;;;;;10.75;100.00;100942.31;4899337;29;20056;-76
2022/11/07 08:07:26;;;;;;;16.70;4.13;;;;;;;10.82;100.00;100937.81;4907407;29;20133;-76
2022/11/07 08:09:51;;;;;;;12.27;3.05;;;;;;;10.81;100.00;100939.56;4898283;29;20028;-76
2022/11/07 08:12:16;;;;;;;13.68;3.03;;;;;;;10.78;100.00;100950.91;4899734;29;20032;-75
2022/11/07 08:14:42;;;;;;;15.00;3.08;;;;;;;10.85;100.00;100940.34;4898867;29;20090;-75
2022/11/07 08:17:07;;;;;;;13.60;3.50;;;;;;;10.89;100.00;100934.16;4898655;29;20396;-76
2022/11/07 08:19:32;;;;;;;17.17;4.30;;;;;;;10.94;100.00;100941.00;4898859;29;20488;-75
2022/11/07 08:21:58;;;;;;;15.07;3.42;;;;;;;10.91;100.00;100943.69;4909943;29;20055;-75
2022/11/07 08:24:23;;;;;;;14.50;2.83;;;;;;;10.90;100.00;100944.59;4912349;29;20072;-75
2022/11/07 08:26:48;;;;;;;14.65;3.53;;;;;;;10.84;100.00;100938.66;4909466;29;20032;-75
2022/11/07 08:29:14;;;;;;;17.15;3.50;;;;;;;10.80;100.00;100950.06;4903653;29;20080;-75
2022/11/07 08:31:39;;;;;;;12.07;3.25;;;;;;;10.69;100.00;100945.94;4915130;29;20555;-75
2022/11/07 08:34:04;;;;;;;19.42;3.65;;;;;;;10.62;100.00;100948.69;4911495;29;20076;-75
2022/11/07 08:36:29;;;;;;;13.55;3.13;;;;;;;10.63;100.00;100950.44;4918197;29;20028;-76
2022/11/07 08:38:55;;;;;;;12.18;3.22;;;;;;;10.63;100.00;100950.44;4912646;29;20033;-75
2022/11/07 08:41:20;;;;;;;14.15;3.80;;;;;;;10.65;100.00;100957.31;4914991;29;20040;-75
2022/11/07 08:43:47;;;;;;;17.08;3.90;;;;;;;10.68;100.00;100951.16;4912807;29;20095;-75
2022/11/07 08:46:13;;;;;;;16.65;4.28;;;;;;;10.78;100.00;100957.88;4904987;29;20365;-76
2022/11/07 08:48:38;;;;;;;11.05;3.35;;;;;;;10.90;100.00;100962.84;4901422;29;20127;-75
2022/11/07 08:51:04;;;;;;;10.98;3.20;;;;;;;10.96;100.00;100959.25;4911081;29;20503;-75
2022/11/07 08:53:30;;;;;;;18.90;3.45;;;;;;;11.13;100.00;100964.91;4907588;29;20092;-75
2022/11/07 08:56:03;;;;;;;12.07;3.58;;;;;;;11.24;100.00;100965.50;4911193;29;20035;-74
2022/11/07 08:58:29;;;;;;;15.23;3.15;;;;;;;11.32;100.00;100977.53;4917784;29;20036;-75
2022/11/07 09:00:54;;;;;;;12.15;3.58;;;;;;;11.39;100.00;100984.31;4907855;29;20032;-75
2022/11/07 09:03:20;;;;;;;11.75;3.78;;;;;;;11.43;100.00;100991.16;4900773;29;20033;-75
2022/11/07 09:05:45;;;;;;;16.92;3.42;;;;;;;11.44;100.00;100982.44;4917497;29;20056;-75
2022/11/07 09:08:10;;;;;;;13.20;3.35;;;;;;;11.47;100.00;100993.66;4908366;29;20441;-77
2022/11/07 09:10:36;;;;;;;18.75;3.95;;;;;;;11.57;100.00;100994.28;4917314;29;20021;-78
2022/11/07 09:13:01;;;;;;;11.55;3.30;;;;;;;11.65;100.00;100991.50;4914949;29;20032;-77
2022/11/07 09:15:26;;;;;;;19.75;3.10;;;;;;;11.68;100.00;100999.25;4911525;29;20027;-78
2022/11/07 09:17:52;;;;;;;13.35;3.45;;;;;;;11.63;100.00;100983.69;4913453;29;20479;-79
2022/11/07 09:20:17;;;;;;;16.42;3.58;;;;;;;11.68;100.00;101007.09;4908716;29;20025;-75
2022/11/07 09:22:42;;;;;;;20.77;3.38;;;;;;;11.66;100.00;100998.41;4906332;29;20087;-85
2022/11/07 09:25:08;;;;;;;9.02;2.58;;;;;;;11.77;100.00;101006.84;4910822;29;20044;-75
2022/11/07 09:27:37;;;;;;;13.43;3.28;;;;;;;11.86;100.00;101004.00;4899331;29;20036;-74
2022/11/07 09:30:06;;;;;;;13.55;3.20;;;;;;;11.95;100.00;101006.38;4886065;29;20478;-74
2022/11/07 09:32:31;;;;;;;16.63;3.78;;;;;;;11.93;100.00;101008.19;4896330;29;20048;-75
2022/11/07 09:34:56;;;;;;;15.43;3.33;;;;;;;11.92;100.00;101016.91;4898404;29;20032;-75
2022/11/07 09:37:22;;;;;;;13.32;3.28;;;;;;;11.89;100.00;101006.53;4896923;29;20491;-75
2022/11/07 09:39:47;;;;;;;15.52;3.28;;;;;;;12.02;100.00;101014.06;4898523;29;20033;-74
2022/11/07 09:42:40;;;;;;;15.63;4.43;;;;;;;12.04;100.00;101005.28;4897249;29;20083;-75
2022/11/07 09:45:10;;;;;;;18.50;3.97;;;;;;;12.08;100.00;101008.69;4892691;29;20028;-75
2022/11/07 09:47:42;;;;;;;14.65;3.30;;;;;;;12.10;100.00;101015.59;4898589;29;20036;-75
2022/11/07 09:50:22;;;;;;;14.73;2.80;;;;;;;12.10;100.00;101004.28;4898071;29;20060;-75
2022/11/07 09:52:56;;;;;;;12.23;3.22;;;;;;;12.10;100.00;101010.34;4896663;29;20024;-75
2022/11/07 09:55:34;;;;;;;16.40;3.25;;;;;;;12.17;100.00;101016.28;4896697;29;20591;-75
2022/11/07 09:58:04;;;;;;;15.70;3.60;;;;;;;12.16;100.00;101006.69;4898331;29;20112;-75
2022/11/07 10:00:31;;;;;;;13.45;2.75;;;;;;;12.31;100.00;101014.13;4896609;29;20060;-75
2022/11/07 10:03:01;;;;;;;16.33;3.20;;;;;;;12.46;100.00;101014.59;4904256;29;20065;-75
2022/11/07 10:05:48;;;;;;;16.20;3.08;;;;;;;12.59;100.00;101023.81;4897707;29;20040;-74
2022/11/07 10:08:22;;;;;;;12.68;3.00;;;;;;;12.68;100.00;101020.91;4897963;29;20047;-75
2022/11/07 10:10:59;;;;;;;11.55;2.90;;;;;;;12.69;100.00;101020.03;4897325;29;20036;-74
2022/11/07 10:13:36;;;;;;;17.13;3.33;;;;;;;12.67;100.00;101020.97;4897669;29;20122;-75
2022/11/07 10:16:11;;;;;;;10.55;3.00;;;;;;;12.63;100.00;101026.28;4898312;29;20104;-75
2022/11/07 10:18:50;;;;;;;12.48;3.38;;;;;;;12.66;100.00;101020.13;4898169;29;20035;-75
2022/11/07 10:21:43;;;;;;;13.90;2.90;;;;;;;12.74;100.00;101031.19;4901248;29;20035;-75
2022/11/07 10:24:27;;;;;;;15.77;3.45;;;;;;;12.77;100.00;101028.50;4912569;29;20028;-74
2022/11/07 10:26:52;;;;;;;16.60;3.38;;;;;;;12.90;100.00;101029.00;4916543;29;20114;-75
2022/11/07 10:29:20;;;;;;;12.55;2.75;;;;;;;12.98;100.00;101024.41;4914444;29;20136;-76
2022/11/07 10:31:53;;;;;;;14.70;2.90;;;;;;;13.07;100.00;101026.72;4916674;29;20052;-76
2022/11/07 10:34:21;;;;;;;14.88;3.00;;;;;;;13.12;100.00;101027.44;4916056;29;20055;-76
2022/11/07 10:36:46;;;;;;;14.98;3.13;;;;;;;13.10;100.00;101037.09;4916932;29;20055;-76
2022/11/07 10:39:19;;;;;;;18.67;3.08;;;;;;;13.14;100.00;101037.84;4916143;29;20427;-75
2022/11/07 10:41:58;;;;;;;13.23;3.42;;;;;;;13.20;100.00;101045.50;4891262;29;20076;-76
2022/11/07 10:44:26;;;;;;;11.98;2.60;;;;;;;13.24;100.00;101043.66;4909971;29;20040;-76
2022/11/07 10:46:52;;;;;;;10.23;2.63;;;;;;;13.38;100.00;101051.97;4916632;29;20056;-76
2022/11/07 10:49:17;;;;;;;10.88;2.72;;;;;;;13.45;100.00;101043.03;4916090;29;20028;-77
2022/11/07 10:51:42;;;;;;;14.53;2.77;;;;;;;13.32;100.00;101026.00;4915639;29;20080;-76
2022/11/07 10:54:28;;;;;;;11.50;3.45;;;;;;;13.39;100.00;101052.84;4916732;29;20335;-76
2022/11/07 10:57:18;;;;;;;15.30;2.92;;;;;;;13.40;100.00;101059.78;4915866;29;20526;-76
2022/11/07 10:59:54;;;;;;;12.55;2.95;;;;;;;13.40;100.00;101055.38;4916533;29;20028;-76
2022/11/07 11:02:44;;;;;;;15.65;3.70;;;;;;;13.38;100.00;101056.38;4912775;29;20024;-76
2022/11/07 11:05:29;;;;;;;15.10;3.63;;;;;;;13.28;100.00;101046.19;4916303;29;20047;-77
2022/11/07 11:07:56;;;;;;;10.90;2.58;;;;;;;13.23;100.00;101058.50;4904594;29;20032;-74
2022/11/07 11:10:29;;;;;;;15.60;2.85;;;;;;;13.20;100.00;101058.59;4914543;29;20028;-78
2022/11/07 11:12:55;;;;;;;10.57;2.92;;;;;;;13.21;100.00;101046.38;4916412;29;20048;-74
2022/11/07 11:15:23;;;;;;;16.73;3.63;;;;;;;13.21;100.00;101051.59;4910701;29;20060;-74
2022/11/07 11:18:01;;;;;;;10.30;2.80;;;;;;;13.22;100.00;101042.88;4899886;29;20032;-74
2022/11/07 11:20:39;;;;;;;12.85;3.33;;;;;;;13.29;100.00;101055.75;4913241;29;20480;-76
2022/11/07 11:23:14;;;;;;;13.80;2.97;;;;;;;13.36;100.00;101048.53;4902235;29;20392;-76
2022/11/07 11:25:47;;;;;;;11.45;3.47;;;;;;;13.42;100.00;101042.25;4916185;29;20032;-77
2022/11/07 11:28:42;;;;;;;10.07;2.60;;;;;;;13.50;100.00;101035.84;4907106;29;20476;-76